• Join FlightAware (Why Join?)
  • Login
  • US Flag 
04:25AM EDT


 

Airport Tracker/Info


-or-


 

Live Flight TrackerFlight Track Log ✈ DAL6232 ✈ 13-May-2014 ✈ KSYR - KLGA

Flight Track Log - Related Links

Times and Time Zones

All times are in EDT time to prevent confusion due to time zone crossing. See the DAL6232 flight status page for this flight to view local times or setup timezone preferences in your user account.

Time Position Orientation Groundspeed Altitude Reporting Facility
EDT Latitude Longitude Course Direction KTS MPH feet Rate Location/Type
07:55AM 43.1100 -76.0814 138° Southeast 164 189 1,100  Level Boston Center
07:56AM 43.1081 -76.0283 93° East 188 216 2,400 1,740 Climbing Boston Center
07:57AM 43.0803 -75.9939 138° Southeast 214 246 3,700 1,860 Climbing Boston Center
07:57AM 43.0619 -75.9731 140° Southeast 252 290 4,300 2,100 Climbing Boston Center
07:58AM 43.0264 -75.9292 138° Southeast 249 287 5,800 2,340 Climbing Boston Center
07:59AM 42.9669 -75.8550 138° Southeast 284 327 8,500 2,340 Climbing Boston Center
08:00AM 42.9014 -75.7731 138° Southeast 312 359 10,600 1,740 Climbing Boston Center
08:01AM 42.9874 -75.7218 138° Southeast  Level FlightAware Approximate
08:01AM 42.8297 -75.6861 138° Southeast 337 388 12,100  Level Boston Center
08:02AM 42.7369 -75.5714 138° Southeast 369 425 14,900 2,100 Climbing Boston Center
08:03AM 42.6561 -75.4725 138° Southeast 387 445 16,400 1,440 Climbing Boston Center
08:04AM 42.5708 -75.3681 138° Southeast 408 470 17,900 1,560 Climbing Boston Center
08:05AM 42.4836 -75.2622 138° Southeast 418 481 19,600 1,500 Climbing Boston Center
08:06AM 42.4253 -75.1253 120° Southeast 424 488 21,000 660 Climbing Boston Center
08:07AM 42.3689 -74.9761 117° Southeast 439 505 21,000 -540 Level Boston Center
08:08AM 42.3122 -74.8228 117° Southeast 453 521 19,900 -1,080 Descending Boston Center
08:09AM 42.2575 -74.6761 117° Southeast 445 512 18,900 -960 Descending Boston Center
08:10AM 42.2025 -74.5267 116° Southeast 445 512 18,000 -480 Descending Boston Center
08:11AM 42.1381 -74.3561 117° Southeast 432 497 18,000  Level Boston Center
08:12AM 42.0542 -74.2408 134° Southeast 444 511 18,000  Level Boston Center
08:13AM 41.9422 -74.1694 155° Southeast 448 516 18,000 -780 Level Boston Center
08:14AM 41.8306 -74.1008 155° Southeast 445 512 16,500 -1,620 Descending Boston Center
08:15AM 41.7258 -74.0347 155° Southeast 417 480 14,800 -1,800 Descending Boston Center
08:16AM 41.6231 -73.9719 155° Southeast 406 467 12,900 -1,980 Descending Boston Center
08:17AM 41.5258 -73.9106 155° Southeast 387 445 10,900 -1,740 Descending Boston Center
08:18AM 41.4358 -73.8561 156° South 323 372 9,400 -960 Descending Boston Center
08:19AM 41.3600 -73.8103 156° South 303 349 9,000 -840 Descending Boston Center
08:20AM 41.3000 -73.8000 173° South 291 335 8,000 -1,620 Descending New York TRACON
08:21AM 41.2333 -73.7833 169° South 284 327 6,300 -1,380 Descending New York TRACON
08:22AM 41.0833 -73.7667 175° South 258 297 4,000 -840 Descending New York TRACON
08:23AM 41.0333 -73.8333 225° Southwest 262 302 4,000  Level New York TRACON
08:25AM 40.9667 -73.8833 210° Southwest 262 302 4,100  Climbing New York TRACON
08:25AM 40.9000 -73.9167 201° Southwest 259 298 4,100  Level New York TRACON
08:26AM 40.8333 -73.9500 201° Southwest 258 297 4,100  Level New York TRACON
08:27AM 40.7833 -73.9833 207° Southwest 259 298 4,100 -60 Level New York TRACON
08:28AM 40.7167 -74.0333 210° Southwest 245 282 4,000 -420 Descending New York TRACON
08:29AM 40.6667 -74.0500 194° South 191 220 3,300 -540 Descending New York TRACON
08:30AM 40.6500 -74.0000 114° Southeast 188 216 3,000 -600 Descending New York TRACON
08:31AM 40.6833 -73.9500 49° Northeast 171 197 2,100 -900 Descending New York TRACON
08:32AM 40.7167 -73.9333 21° North 144 166 1,400 -780 Descending New York TRACON
08:33AM 40.7500 -73.9000 37° Northeast 125 144 600 -780 Descending New York TRACON